JBU572 KFLL-KLGA
Flight info
| Callsign | JBU572 |
|---|---|
| Flight time | N/A |
| Altitude | 37000 |
| Route | FEALX2 ETECK GRUBR Y299 SEELO GARIC Q107 HURTS PROUD2 |
| Aircraft | A320/M-SDE3FGHIRWY/LB1 |
Departure
| Time | N/A |
|---|---|
| Airport | Fort Lauderdale Hollywood International Airport (KFLL) |
Arrival
| Time | 2026-05-05 01:04 |
|---|---|
| Airport | LaGuardia Airport (KLGA) |
| Time | Latitude | Longitude | Altitude | Speed | Heading |
|---|---|---|---|---|---|
| 2026-05-05 00:18 | 37.99855 | -76.60088 | 36977 ft | 446 kts | 22° |
| 2026-05-05 00:19 | 38.05420 | -76.56598 | 36968 ft | 446 kts | 22° |
| 2026-05-05 00:19 | 38.10966 | -76.53065 | 36968 ft | 446 kts | 23° |
| 2026-05-05 00:20 | 38.16505 | -76.49516 | 36984 ft | 446 kts | 23° |
| 2026-05-05 00:20 | 38.22045 | -76.45981 | 36978 ft | 446 kts | 23° |
| 2026-05-05 00:21 | 38.27583 | -76.42446 | 36972 ft | 445 kts | 24° |
| 2026-05-05 00:21 | 38.32732 | -76.37984 | 36985 ft | 450 kts | 34° |
| 2026-05-05 00:22 | 38.37697 | -76.33120 | 36980 ft | 451 kts | 34° |
| 2026-05-05 00:22 | 38.40207 | -76.30672 | 36371 ft | 457 kts | 34° |
| 2026-05-05 00:22 | 38.42747 | -76.28196 | 35456 ft | 463 kts | 34° |
| 2026-05-05 00:22 | 38.45313 | -76.25693 | 34759 ft | 464 kts | 34° |
| 2026-05-05 00:23 | 38.47838 | -76.23218 | 34201 ft | 460 kts | 34° |
| 2026-05-05 00:23 | 38.50362 | -76.20740 | 33437 ft | 455 kts | 34° |
| 2026-05-05 00:23 | 38.52856 | -76.18291 | 32672 ft | 450 kts | 34° |
| 2026-05-05 00:23 | 38.55325 | -76.15861 | 31995 ft | 443 kts | 34° |
| 2026-05-05 00:24 | 38.57716 | -76.13502 | 31152 ft | 435 kts | 34° |
| 2026-05-05 00:24 | 38.60102 | -76.11150 | 30284 ft | 429 kts | 34° |
| 2026-05-05 00:24 | 38.62451 | -76.08840 | 29345 ft | 423 kts | 34° |
| 2026-05-05 00:24 | 38.64784 | -76.06577 | 28388 ft | 417 kts | 33° |
| 2026-05-05 00:25 | 38.67097 | -76.04399 | 27477 ft | 411 kts | 33° |
| 2026-05-05 00:25 | 38.69408 | -76.02259 | 26594 ft | 406 kts | 32° |
| 2026-05-05 00:25 | 38.71665 | -76.00178 | 25784 ft | 401 kts | 32° |
| 2026-05-05 00:25 | 38.73905 | -75.98107 | 25251 ft | 391 kts | 33° |
| 2026-05-05 00:26 | 38.76063 | -75.96098 | 24967 ft | 374 kts | 33° |
| 2026-05-05 00:26 | 38.78132 | -75.94163 | 24936 ft | 370 kts | 33° |
| 2026-05-05 00:26 | 38.80219 | -75.92214 | 24950 ft | 371 kts | 33° |
| 2026-05-05 00:26 | 38.82301 | -75.90265 | 24942 ft | 371 kts | 33° |
| 2026-05-05 00:27 | 38.84388 | -75.88307 | 24946 ft | 371 kts | 33° |
| 2026-05-05 00:27 | 38.86471 | -75.86346 | 24944 ft | 371 kts | 33° |
| 2026-05-05 00:27 | 38.88555 | -75.84383 | 24945 ft | 371 kts | 33° |
| 2026-05-05 00:27 | 38.90645 | -75.82417 | 24936 ft | 372 kts | 33° |
| 2026-05-05 00:28 | 38.92733 | -75.80450 | 24935 ft | 371 kts | 33° |
| 2026-05-05 00:28 | 38.94815 | -75.78492 | 24937 ft | 371 kts | 33° |
| 2026-05-05 00:28 | 38.96869 | -75.76561 | 24935 ft | 369 kts | 33° |
| 2026-05-05 00:28 | 38.98946 | -75.74609 | 24931 ft | 369 kts | 33° |
| 2026-05-05 00:29 | 39.01022 | -75.72651 | 24926 ft | 369 kts | 33° |
| 2026-05-05 00:29 | 39.03093 | -75.70693 | 24927 ft | 369 kts | 33° |
| 2026-05-05 00:29 | 39.05140 | -75.68751 | 24926 ft | 369 kts | 33° |
| 2026-05-05 00:29 | 39.07208 | -75.66785 | 24926 ft | 369 kts | 33° |
| 2026-05-05 00:30 | 39.09278 | -75.64818 | 24925 ft | 369 kts | 33° |
| 2026-05-05 00:30 | 39.11357 | -75.62844 | 24926 ft | 369 kts | 33° |
| 2026-05-05 00:30 | 39.13398 | -75.60907 | 24931 ft | 369 kts | 33° |
| 2026-05-05 00:30 | 39.15473 | -75.58941 | 24925 ft | 368 kts | 33° |
| 2026-05-05 00:31 | 39.17537 | -75.56984 | 24924 ft | 368 kts | 33° |
| 2026-05-05 00:31 | 39.19580 | -75.55042 | 24925 ft | 368 kts | 33° |
| 2026-05-05 00:31 | 39.21643 | -75.53071 | 24925 ft | 368 kts | 33° |
| 2026-05-05 00:31 | 39.23702 | -75.51108 | 24899 ft | 368 kts | 32° |
| 2026-05-05 00:32 | 39.25789 | -75.49191 | 24646 ft | 367 kts | 31° |
| 2026-05-05 00:32 | 39.27888 | -75.47325 | 24408 ft | 365 kts | 31° |
| 2026-05-05 00:32 | 39.29985 | -75.45489 | 24171 ft | 363 kts | 30° |
| 2026-05-05 00:32 | 39.32081 | -75.43659 | 23935 ft | 363 kts | 30° |
| 2026-05-05 00:33 | 39.34141 | -75.41850 | 23716 ft | 361 kts | 30° |
| 2026-05-05 00:33 | 39.36219 | -75.40018 | 23479 ft | 359 kts | 30° |
| 2026-05-05 00:33 | 39.38291 | -75.38184 | 23207 ft | 358 kts | 30° |
| 2026-05-05 00:33 | 39.40341 | -75.36362 | 22931 ft | 357 kts | 30° |
| 2026-05-05 00:34 | 39.42362 | -75.34562 | 22669 ft | 356 kts | 31° |
| 2026-05-05 00:34 | 39.44408 | -75.32736 | 22399 ft | 355 kts | 30° |
| 2026-05-05 00:34 | 39.46440 | -75.30923 | 22126 ft | 354 kts | 31° |
| 2026-05-05 00:34 | 39.48446 | -75.29130 | 21858 ft | 353 kts | 31° |
| 2026-05-05 00:35 | 39.50469 | -75.27321 | 21612 ft | 352 kts | 31° |
| 2026-05-05 00:35 | 39.52483 | -75.25496 | 21347 ft | 351 kts | 31° |
| 2026-05-05 00:35 | 39.54443 | -75.23678 | 21114 ft | 350 kts | 32° |
| 2026-05-05 00:35 | 39.56422 | -75.21820 | 20792 ft | 351 kts | 32° |
| 2026-05-05 00:36 | 39.58398 | -75.19952 | 20413 ft | 348 kts | 32° |
| 2026-05-05 00:36 | 39.60357 | -75.18098 | 20034 ft | 347 kts | 32° |
| 2026-05-05 00:36 | 39.62291 | -75.16269 | 19656 ft | 346 kts | 32° |
| 2026-05-05 00:36 | 39.64238 | -75.14432 | 19278 ft | 345 kts | 32° |
| 2026-05-05 00:37 | 39.66180 | -75.12603 | 18905 ft | 344 kts | 32° |
| 2026-05-05 00:37 | 39.68099 | -75.10802 | 18537 ft | 343 kts | 31° |
| 2026-05-05 00:37 | 39.70061 | -75.09050 | 18154 ft | 341 kts | 30° |
| 2026-05-05 00:37 | 39.72036 | -75.07357 | 17757 ft | 339 kts | 29° |
| 2026-05-05 00:38 | 39.74008 | -75.05693 | 17482 ft | 337 kts | 28° |
| 2026-05-05 00:38 | 39.75973 | -75.04039 | 17121 ft | 335 kts | 28° |
| 2026-05-05 00:38 | 39.77930 | -75.02385 | 16757 ft | 333 kts | 28° |
| 2026-05-05 00:38 | 39.79867 | -75.00732 | 16394 ft | 332 kts | 29° |
| 2026-05-05 00:39 | 39.81797 | -74.99067 | 16030 ft | 331 kts | 29° |
| 2026-05-05 00:39 | 39.83692 | -74.97427 | 15675 ft | 329 kts | 29° |
| 2026-05-05 00:39 | 39.85598 | -74.95773 | 15317 ft | 328 kts | 30° |
| 2026-05-05 00:39 | 39.86843 | -74.94665 | 15079 ft | 327 kts | 30° |
| 2026-05-05 00:40 | 39.88706 | -74.92977 | 14724 ft | 325 kts | 31° |
| 2026-05-05 00:40 | 39.90555 | -74.91286 | 14370 ft | 324 kts | 31° |
| 2026-05-05 00:40 | 39.92351 | -74.89507 | 14027 ft | 326 kts | 39° |
| 2026-05-05 00:40 | 39.93909 | -74.87343 | 13656 ft | 328 kts | 44° |
| 2026-05-05 00:41 | 39.95438 | -74.85136 | 13273 ft | 326 kts | 44° |
| 2026-05-05 00:41 | 39.96960 | -74.82958 | 12916 ft | 323 kts | 44° |
| 2026-05-05 00:41 | 39.98479 | -74.80791 | 12564 ft | 321 kts | 44° |
| 2026-05-05 00:41 | 39.99981 | -74.78647 | 12216 ft | 319 kts | 44° |
| 2026-05-05 00:42 | 40.01461 | -74.76531 | 11878 ft | 317 kts | 44° |
| 2026-05-05 00:42 | 40.02940 | -74.74409 | 11529 ft | 315 kts | 44° |
| 2026-05-05 00:42 | 40.04420 | -74.72294 | 11188 ft | 313 kts | 44° |
| 2026-05-05 00:42 | 40.05884 | -74.70201 | 10848 ft | 311 kts | 44° |
| 2026-05-05 00:43 | 40.07336 | -74.68119 | 10513 ft | 309 kts | 44° |
| 2026-05-05 00:43 | 40.08772 | -74.66061 | 10167 ft | 308 kts | 44° |
| 2026-05-05 00:43 | 40.10203 | -74.64010 | 10012 ft | 304 kts | 44° |
| 2026-05-05 00:43 | 40.11623 | -74.61966 | 10019 ft | 304 kts | 44° |
| 2026-05-05 00:44 | 40.13050 | -74.59910 | 10024 ft | 304 kts | 44° |
| 2026-05-05 00:44 | 40.14469 | -74.57863 | 10018 ft | 304 kts | 44° |
| 2026-05-05 00:44 | 40.15878 | -74.55827 | 10015 ft | 305 kts | 44° |
| 2026-05-05 00:44 | 40.17301 | -74.53766 | 10022 ft | 305 kts | 44° |
| 2026-05-05 00:45 | 40.18724 | -74.51709 | 10017 ft | 305 kts | 44° |
| 2026-05-05 00:45 | 40.20145 | -74.49652 | 10031 ft | 304 kts | 43° |
| 2026-05-05 00:45 | 40.21597 | -74.47676 | 10020 ft | 304 kts | 41° |
| 2026-05-05 00:45 | 40.23123 | -74.45733 | 10028 ft | 304 kts | 39° |
| 2026-05-05 00:46 | 40.24640 | -74.43851 | 10029 ft | 303 kts | 39° |
| 2026-05-05 00:46 | 40.26172 | -74.41957 | 10030 ft | 302 kts | 39° |
| 2026-05-05 00:46 | 40.27702 | -74.40056 | 10029 ft | 302 kts | 39° |
| 2026-05-05 00:46 | 40.29224 | -74.38153 | 10032 ft | 302 kts | 40° |
| 2026-05-05 00:47 | 40.30742 | -74.36247 | 10026 ft | 302 kts | 40° |
| 2026-05-05 00:47 | 40.32256 | -74.34335 | 10032 ft | 301 kts | 40° |
| 2026-05-05 00:47 | 40.33762 | -74.32429 | 10031 ft | 301 kts | 40° |
| 2026-05-05 00:47 | 40.35265 | -74.30524 | 10031 ft | 300 kts | 40° |
| 2026-05-05 00:48 | 40.36766 | -74.28619 | 10037 ft | 300 kts | 40° |
| 2026-05-05 00:48 | 40.38266 | -74.26713 | 10032 ft | 300 kts | 40° |
| 2026-05-05 00:48 | 40.39765 | -74.24809 | 10021 ft | 300 kts | 40° |
| 2026-05-05 00:48 | 40.41267 | -74.22900 | 10021 ft | 300 kts | 40° |
| 2026-05-05 00:49 | 40.42769 | -74.20991 | 10022 ft | 300 kts | 40° |
| 2026-05-05 00:49 | 40.44249 | -74.19113 | 10028 ft | 300 kts | 40° |
| 2026-05-05 00:49 | 40.45753 | -74.17202 | 9891 ft | 299 kts | 40° |
| 2026-05-05 00:49 | 40.47243 | -74.15298 | 9791 ft | 298 kts | 40° |
| 2026-05-05 00:50 | 40.48730 | -74.13397 | 9644 ft | 298 kts | 40° |
| 2026-05-05 00:50 | 40.50222 | -74.11492 | 9516 ft | 297 kts | 40° |
| 2026-05-05 00:50 | 40.51701 | -74.09646 | 9327 ft | 294 kts | 36° |
| 2026-05-05 00:50 | 40.53357 | -74.08128 | 9003 ft | 288 kts | 28° |
| 2026-05-05 00:51 | 40.55042 | -74.06707 | 8660 ft | 287 kts | 28° |
| 2026-05-05 00:51 | 40.56727 | -74.05284 | 8314 ft | 286 kts | 28° |
| 2026-05-05 00:51 | 40.58406 | -74.03863 | 7963 ft | 285 kts | 28° |
| 2026-05-05 00:51 | 40.60157 | -74.02649 | 7540 ft | 285 kts | 19° |
| 2026-05-05 00:52 | 40.61986 | -74.01652 | 7174 ft | 284 kts | 18° |
| 2026-05-05 00:52 | 40.63813 | -74.00681 | 7019 ft | 283 kts | 17° |
| 2026-05-05 00:52 | 40.65651 | -73.99716 | 7031 ft | 285 kts | 18° |
| 2026-05-05 00:52 | 40.67504 | -73.98757 | 7025 ft | 286 kts | 17° |
| 2026-05-05 00:53 | 40.69362 | -73.97803 | 7026 ft | 286 kts | 17° |
| 2026-05-05 00:53 | 40.71219 | -73.96848 | 7027 ft | 287 kts | 17° |
| 2026-05-05 00:53 | 40.73100 | -73.96004 | 7026 ft | 283 kts | 10° |
| 2026-05-05 00:53 | 40.75000 | -73.95445 | 7027 ft | 283 kts | 7° |
| 2026-05-05 00:54 | 40.76923 | -73.94924 | 7007 ft | 282 kts | 7° |
| 2026-05-05 00:54 | 40.78854 | -73.94406 | 6990 ft | 283 kts | 7° |
| 2026-05-05 00:54 | 40.80780 | -73.93892 | 6990 ft | 283 kts | 7° |
| 2026-05-05 00:54 | 40.82698 | -73.93379 | 6881 ft | 275 kts | 7° |
| 2026-05-05 00:55 | 40.84552 | -73.92877 | 6414 ft | 270 kts | 7° |
| 2026-05-05 00:55 | 40.86391 | -73.92374 | 5811 ft | 269 kts | 7° |
| 2026-05-05 00:55 | 40.88232 | -73.91871 | 5192 ft | 271 kts | 7° |
| 2026-05-05 00:55 | 40.90072 | -73.91369 | 4590 ft | 271 kts | 7° |
| 2026-05-05 00:56 | 40.91906 | -73.90749 | 4031 ft | 276 kts | 18° |
| 2026-05-05 00:56 | 40.93665 | -73.89735 | 3698 ft | 276 kts | 22° |
| 2026-05-05 00:56 | 40.95404 | -73.88665 | 3404 ft | 276 kts | 22° |
| 2026-05-05 00:56 | 40.97134 | -73.87588 | 3118 ft | 274 kts | 25° |
| 2026-05-05 00:57 | 40.98788 | -73.86407 | 2996 ft | 264 kts | 27° |
| 2026-05-05 00:57 | 41.00159 | -73.84918 | 2998 ft | 250 kts | 56° |
| 2026-05-05 00:57 | 41.00757 | -73.82861 | 3011 ft | 242 kts | 89° |
| 2026-05-05 00:57 | 41.00621 | -73.80676 | 3014 ft | 238 kts | 105° |
| 2026-05-05 00:58 | 41.00300 | -73.78531 | 3009 ft | 237 kts | 107° |
| 2026-05-05 00:58 | 40.99889 | -73.76440 | 2998 ft | 231 kts | 122° |
| 2026-05-05 00:58 | 40.98927 | -73.74835 | 3007 ft | 220 kts | 147° |
| 2026-05-05 00:58 | 40.97639 | -73.73835 | 3011 ft | 213 kts | 167° |
| 2026-05-05 00:59 | 40.96226 | -73.73476 | 3006 ft | 201 kts | 185° |
| 2026-05-05 00:59 | 40.94912 | -73.73713 | 3005 ft | 185 kts | 201° |
| 2026-05-05 00:59 | 40.93780 | -73.74431 | 3033 ft | 179 kts | 214° |
| 2026-05-05 00:59 | 40.92732 | -73.75303 | 3015 ft | 177 kts | 214° |
| 2026-05-05 01:00 | 40.91693 | -73.76166 | 2929 ft | 173 kts | 214° |
| 2026-05-05 01:00 | 40.90689 | -73.77000 | 2753 ft | 168 kts | 214° |
| 2026-05-05 01:00 | 40.89706 | -73.77815 | 2547 ft | 164 kts | 214° |
| 2026-05-05 01:00 | 40.88769 | -73.78595 | 2343 ft | 154 kts | 214° |
| 2026-05-05 01:01 | 40.87891 | -73.79322 | 2143 ft | 146 kts | 215° |
| 2026-05-05 01:01 | 40.87044 | -73.80025 | 1964 ft | 142 kts | 215° |
| 2026-05-05 01:01 | 40.86205 | -73.80722 | 1776 ft | 141 kts | 213° |
| 2026-05-05 01:01 | 40.85408 | -73.81382 | 1604 ft | 133 kts | 214° |
| 2026-05-05 01:02 | 40.84625 | -73.82030 | 1417 ft | 131 kts | 213° |
| 2026-05-05 01:02 | 40.83858 | -73.82668 | 1241 ft | 129 kts | 213° |
| 2026-05-05 01:02 | 40.83093 | -73.83299 | 1066 ft | 129 kts | 213° |
| 2026-05-05 01:02 | 40.82334 | -73.83935 | 900 ft | 131 kts | 211° |
| 2026-05-05 01:03 | 40.81575 | -73.84565 | 720 ft | 130 kts | 210° |
| 2026-05-05 01:03 | 40.80792 | -73.85208 | 508 ft | 131 kts | 212° |
| 2026-05-05 01:03 | 40.80040 | -73.85851 | 380 ft | 130 kts | 209° |
| 2026-05-05 01:03 | 40.79261 | -73.86485 | 224 ft | 134 kts | 209° |
| 2026-05-05 01:04 | 40.78480 | -73.87123 | 38 ft | 130 kts | 208° |
| 2026-05-05 01:04 | 40.77499 | -73.87930 | 22 ft | 32 kts | 212° |
| 2026-05-05 01:04 | 40.77336 | -73.87995 | 19 ft | 18 kts | 186° |
| 2026-05-05 01:05 | 40.77316 | -73.87935 | 20 ft | 10 kts | 27° |
| 2026-05-05 01:05 | 40.77379 | -73.87882 | 22 ft | 11 kts | 33° |
| 2026-05-05 01:05 | 40.77446 | -73.87827 | 23 ft | 12 kts | 32° |
| 2026-05-05 01:05 | 40.77524 | -73.87763 | 22 ft | 15 kts | 32° |
| 2026-05-05 01:06 | 40.77617 | -73.87684 | 24 ft | 17 kts | 33° |
| 2026-05-05 01:06 | 40.77719 | -73.87597 | 22 ft | 13 kts | 40° |
| 2026-05-05 01:06 | 40.77741 | -73.87476 | 20 ft | 15 kts | 64° |
| 2026-05-05 01:06 | 40.77772 | -73.87325 | 18 ft | 17 kts | 91° |
| 2026-05-05 01:07 | 40.77727 | -73.87168 | 18 ft | 20 kts | 123° |
| 2026-05-05 01:07 | 40.77650 | -73.87008 | 14 ft | 22 kts | 124° |
| 2026-05-05 01:07 | 40.77575 | -73.86936 | 15 ft | 8 kts | 221° |
| 2026-05-05 01:07 | 40.77539 | -73.87007 | 14 ft | 10 kts | 244° |
| 2026-05-05 01:08 | 40.77493 | -73.87092 | 17 ft | 12 kts | 225° |
| 2026-05-05 01:08 | 40.77454 | -73.87063 | 17 ft | 9 kts | 93° |
| 2026-05-05 01:08 | 40.77443 | -73.87000 | 16 ft | 0 kts | 104° |